Аэропорт
Угольный (UHMA)

 UHMA / DYR
ЗЦ Хабаровск
Магадан (UHMM)
Магадан (UHMM)
 64.73490, 177.74100  / 194 ft

 UHMA 111600Z 03006MPS 9999 FEW002 SCT031 M24/M27 Q1002 R01/////// NOSIG RMK END R01/02007MPS QBB070 QFE748/0997
 UHMA 111053Z 1112/1212 36007MPS 4000 -SN BR SCT010 BKN025 TEMPO 1112/1121 33010G15MPS 1000 SN BLSN SCT004 BKN015 TEMPO 1121/1212 33010G15MPS 2000 SN BLSN SCT005 BKN015
UHMA_AIP_0217
показать схемы
Название сценария Тип сценария Flight Simulator 9 Flight Simulator X Prepar3D v2 Prepar3D v3 Prepar3D v4 xPlane
uhma-scenery-fs9-1003 бесплатный
uhma-scenery-fsx-1308 бесплатный


2018 © VATRUS division